KPRX/PRX METAR and TAF weather

Enter ICAO airport designator
Station Type Date Time Source
KPRX METAR 2020/02/28 08:56 UTC NOAA

KPRX 280856Z AUTO 27008KT 10SM CLR 04/M02 A3024 RMK AO2 SLP256 T00441022 55000


Station Type Date Time Source
KPRX Decoded METAR 2020/02/28 08:56 UTC NOAA

Paris / Cox Field, TX, United States (KPRX) 33-38N 095-27W
Feb 28, 2020 - 03:56 AM EST / 2020.02.28 0856 UTC
Wind: from the W (270 degrees) at 9 MPH (8 KT):0
Visibility: 10 mile(s):0
Sky conditions: clear
Temperature: 39.9 F (4.4 C)
Dew Point: 28.0 F (-2.2 C)
Relative Humidity: 62%
Pressure (altimeter): 30.24 in. Hg (1024 hPa)
Pressure tendency: 0.00 inches (0.0 hPa) lower than three hours ago
ob: KPRX 280856Z AUTO 27008KT 10SM CLR 04/M02 A3024 RMK AO2 SLP256 T00441022 55000
cycle: 9

Station Type Date Time Source
KPRX TAF UTC NOAA

Error!

Example: see airport list